x

St. Augustine, Fl (sauf1) Weather Station

7:00am - Fri 29th Jul 2016 All times are EDT. -4 hours from GMT.

  • Wind
    5mph, 6mph gusts
  • Sea Temp 84°f
  • Air Temp 78°f
  • Sea Pressure 1018.1mb
  • St. Augustine, Fl
  • St. Augustine, Fl

More Historic Weather Station data

Upgrade to MSW Pro to gain access to the past 30 days of data for over 8000 Wavebouys and Weather Stations around the globe.

Join Pro

Comparision Forecast

View Surf forecast
   
Fri 07/29 7:00am 5 6 mph 1018.1mb 84f 78f
6:00am 6 7 mph 1018mb 84f 78f
5:00am 7
mph
1017.2mb 84f 78f
4:00am 6 7 mph 1017.3mb 84f 79f
3:00am 6 7 mph 1017.5mb 84f 80f
2:00am 5
mph
1017.8mb 85f 81f
1:00am 5
mph
1018.2mb 85f 82f
12:00am 9 10 mph 1018.2mb 86f 82f
Thu 07/28 11:00pm 5 7 mph 1017.9mb 87f 83f
10:00pm 11 15 mph 1017.9mb 87f 83f
9:00pm 6 7 mph 1017.3mb 87f 84f
8:00pm 16 17 mph 1016.8mb 87f 84f
7:00pm 15 17 mph 1016.3mb 87f 84f
6:00pm 14 15 mph 1016.7mb 86f 85f
5:00pm 14
mph
1016.6mb 86f 85f
4:00pm 14 15 mph 1017.2mb 86f 85f
3:00pm 11 13 mph 1017.7mb 86f 85f
2:00pm 11
mph
1018.1mb 86f 85f
1:00pm 7 8 mph 1018.6mb 86f 85f
12:00pm 9 10 mph 1019.1mb 85f 84f
11:00am 9
mph
1019.4mb 85f 84f
10:00am 9 10 mph 1019.2mb 84f 85f
9:00am 6 7 mph 1019.2mb 84f 85f
8:00am 6 7 mph 1018.7mb 84f 82f
7:00am 3 5 mph 1018.6mb 84f 78f
6:00am 3
mph
1018.5mb 84f 79f
5:00am 2 3 mph 1018.5mb 84f 79f
4:00am 6 7 mph 1018.5mb 84f 80f
3:00am 8 10 mph 1018.4mb 85f 81f
2:00am 8 9 mph 1018.5mb 85f 81f
1:00am 6 8 mph 1018.9mb 86f 81f
12:00am 5 6 mph 1018.7mb 87f 82f
Wed 07/27 11:00pm 6 7 mph 1018.7mb 87f 82f
10:00pm 13 16 mph 1018.4mb 87f 83f
9:00pm 16 18 mph 1017.7mb 88f 84f
8:00pm 15 16 mph 1017.7mb 88f 84f
7:00pm 14 15 mph 1017.4mb 88f 85f
6:00pm 14 15 mph 1017.5mb 87f 85f
5:00pm 14 15 mph 1017.9mb 86f 85f
4:00pm 13 14 mph 1018.4mb 86f 84f
3:00pm 13
mph
1019mb 86f 84f
2:00pm 9 10 mph 1019.7mb 86f 84f
1:00pm 7 8 mph 1020.2mb 86f 84f
12:00pm 8
mph
1020.7mb 85f 84f
11:00am 6
mph
1020.5mb 85f 83f
10:00am 2 3 mph 1020.4mb 84f 83f
9:00am 3 5 mph 1020.3mb 84f 82f
8:00am 3 5 mph 1019.7mb 84f 80f
7:00am 3
mph
1019.3mb 84f 79f
6:00am 3
mph
1019mb 84f 79f
5:00am 3
mph
1018.7mb 84f 79f
4:00am 5 6 mph 1018.9mb 84f 79f
3:00am 5 6 mph 1019.2mb 85f 78f
2:00am 7 8 mph 1019.3mb 85f 79f
1:00am 7 9 mph 1019.5mb 85f 81f
12:00am 7 8 mph 1019.4mb 86f 83f
Tue 07/26 11:00pm 9 10 mph 1019.2mb 86f 83f
10:00pm 16 18 mph 1018.7mb 87f 84f
9:00pm 16 17 mph 1018.2mb 87f 84f
8:00pm 16 20 mph 1017.3mb 88f 84f
7:00pm 16 18 mph 1017.3mb 88f 85f
6:00pm 16 17 mph 1017.5mb 88f 85f
5:00pm 16 17 mph 1017.7mb 88f 85f
4:00pm 17 18 mph 1018.2mb 87f 85f
3:00pm 14
mph
1018.7mb 87f 84f
2:00pm 15 16 mph 1019.1mb 86f 84f
1:00pm 13 15 mph 1019.6mb 85f 84f
12:00pm 10 11 mph 1020.1mb 85f 83f
11:00am 8 9 mph 1020mb 85f 82f
10:00am 8
mph
1019.9mb 84f 81f
9:00am 3 5 mph 1019.8mb 84f 82f
8:00am 2 3 mph 1019.5mb 84f 81f
7:00am 5 7 mph 1019.4mb 84f 76f
6:00am 1 2 mph 1018.8mb 84f 77f
5:00am 3
mph
1018.6mb 84f 78f
4:00am 5
mph
1018.5mb 85f 78f
3:00am 2 3 mph 1018.8mb 85f 79f
2:00am 3
mph
1019.2mb 85f 79f
1:00am 7 8 mph 1019.4mb 85f 80f
12:00am 6 7 mph 1019.3mb 85f 81f
Mon 07/25 11:00pm 16 17 mph 1018.8mb 86f 83f
10:00pm 18 20 mph 1018.4mb 86f 83f
9:00pm 16 18 mph 1018.1mb 86f 84f
8:00pm 17 18 mph 1017.9mb 87f 83f
7:00pm 18 20 mph 1017.5mb 87f 83f
6:00pm 18 21 mph 1017.8mb 88f 83f
5:00pm 17 18 mph 1017.8mb 87f 83f
4:00pm 16 18 mph 1018.2mb 87f 83f
3:00pm 14 15 mph 1018.8mb 87f 83f
2:00pm 14 15 mph 1019.1mb 87f 83f
1:00pm 11 13 mph 1019.8mb 86f 83f